AGROMETEOROLOŠKI PORTAL

vinorodna pokrajina

Temelj dobrega kmetovanja

Pregled podatkov za lokacijo Drašiči, meteorološka postaja 512058

Pregled senzorjev na lokaciji

ID Ime Zadnja
vrednost
Datum in čas
meritve
(lokalni čas)
Tip
senzorja
6846 Omočenost lista (1,5 m) (U) 9 U 25.9.2022 22:30 A730WET
6855 Padavine (mm) 0 mm 25.9.2022 22:30 Generic 0.2 mm
6848 Relativna zračna vlaga (2 m) (%RH) 96 %RH 25.9.2022 22:30 50YA
6847 Temperatura (2 m) (°C) 14,8 °C 25.9.2022 22:30 50YA

Pregled podatkov zadnjih 24 ur

Zap.
št.
Datum in čas
(lokalni čas)
Drašiči
Omočenost
lista
(1,5
m)
Padavine Relativna
zračna
vlaga
(2
m)
Temperatura
(2
m)
1 25.9.2022 22:30 9 0 96,1 14,8
2 25.9.2022 22:00 4 0 93,5 15,1
3 25.9.2022 21:30 3 0 93,2 15,5
4 25.9.2022 21:00 2 0 91,8 15,9
5 25.9.2022 20:30 4 0 93,7 15,9
6 25.9.2022 20:00 3 0 93 16,2
7 25.9.2022 19:30 1 0 88 16,7
8 25.9.2022 19:00 0 0 80,4 17,5
9 25.9.2022 18:30 0 0 79,3 17,8
10 25.9.2022 18:00 0 0 79,7 18,1
11 25.9.2022 17:30 0 0 75,8 18,5
12 25.9.2022 17:00 0 0 74,3 19
13 25.9.2022 16:30 0 0 71 19,7
14 25.9.2022 16:00 0 0 71 20
15 25.9.2022 15:30 0 0 73,6 19,3
16 25.9.2022 15:00 0 0 72,2 19,5
17 25.9.2022 14:30 0 0 71,4 19,2
18 25.9.2022 14:00 0 0 66,6 20,6
19 25.9.2022 13:30 0 0 69,3 19,8
20 25.9.2022 13:00 0 0 69,3 19,2
21 25.9.2022 12:30 0 0 72,5 18,5
22 25.9.2022 12:00 0 0 78,4 16,7
23 25.9.2022 11:30 0 0 79,3 16,3
24 25.9.2022 11:00 3 0 88,1 14,4
25 25.9.2022 10:30 0 0 96,3 13,1
26 25.9.2022 10:00 3 0 100 12,6
27 25.9.2022 09:30 5 0 100 12,3
28 25.9.2022 09:00 6 0 100 11,9
29 25.9.2022 08:30 8 0 100 11,5
30 25.9.2022 08:00 10 0 100 11,3
31 25.9.2022 07:30 10 0,2 100 11,3
32 25.9.2022 07:00 10 0 100 11,3
33 25.9.2022 06:30 10 0 100 11,3
34 25.9.2022 06:00 10 0 100 11,4
35 25.9.2022 05:30 10 0,2 100 11,5
36 25.9.2022 05:00 10 0,4 100 11,6
37 25.9.2022 04:30 10 0,4 100 11,6
38 25.9.2022 04:00 10 0 100 11,8
39 25.9.2022 03:30 10 0 100 11,8
40 25.9.2022 03:00 10 0 100 11,9
41 25.9.2022 02:30 10 0 100 12,2
42 25.9.2022 02:00 10 0,2 100 12,3
43 25.9.2022 01:30 10 0 99,9 12,3
44 25.9.2022 01:00 10 0,2 98,3 12,4
45 25.9.2022 00:30 10 0 91,3 13,1
46 25.9.2022 00:00 0 0 83,7 13,8